createdAt,value
2017-03-25T00:00:30.791Z,74.16
2017-03-25T00:01:32.033Z,74.26
2017-03-25T00:02:33.305Z,74.26
2017-03-25T00:03:34.534Z,74.26
2017-03-25T00:04:35.783Z,74.83
2017-03-25T00:05:37.028Z,74.92
2017-03-25T00:06:38.265Z,75.02
2017-03-25T00:07:39.586Z,74.92
2017-03-25T00:08:41.047Z,74.92
2017-03-25T00:09:42.273Z,74.73
2017-03-25T00:10:43.506Z,74.64
2017-03-25T00:11:44.842Z,75.02
2017-03-25T00:12:46.042Z,74.64
2017-03-25T00:13:47.289Z,74.83
2017-03-25T00:14:48.534Z,74.73
2017-03-25T00:15:49.813Z,74.83
2017-03-25T00:16:51.058Z,74.64
2017-03-25T00:17:52.290Z,74.73
2017-03-25T00:18:53.531Z,75.02
2017-03-25T00:19:54.752Z,75.02
2017-03-25T00:20:56.053Z,74.83
2017-03-25T00:21:57.260Z,74.92
2017-03-25T00:22:58.525Z,74.83
2017-03-25T00:23:59.762Z,74.73
2017-03-25T00:25:01.043Z,74.64
2017-03-25T00:26:02.298Z,74.26
2017-03-25T00:27:03.537Z,74.26
2017-03-25T00:28:04.776Z,74.45
2017-03-25T00:29:06.077Z,74.73
2017-03-25T00:30:07.305Z,74.6
2017-03-25T00:31:08.540Z,74.6
2017-03-25T00:32:09.794Z,74.79
2017-03-25T00:33:11.012Z,74.88
2017-03-25T00:34:12.319Z,74.51
2017-03-25T00:35:13.531Z,74.79
2017-03-25T00:36:14.763Z,74.98
2017-03-25T00:37:16.028Z,74.79
2017-03-25T00:38:17.240Z,75.07
2017-03-25T00:39:18.502Z,74.98
2017-03-25T00:40:19.740Z,75.17
2017-03-25T00:41:20.976Z,75.36
2017-03-25T00:42:22.229Z,75.26
2017-03-25T00:43:23.459Z,75.55
2017-03-25T00:44:24.683Z,75.45
2017-03-25T00:45:25.918Z,75.26
2017-03-25T00:46:27.143Z,75.26
2017-03-25T00:47:28.381Z,75.64
2017-03-25T00:48:29.626Z,76.03
2017-03-25T00:49:30.904Z,75.74
2017-03-25T00:50:32.197Z,76.03
2017-03-25T00:51:33.368Z,75.84
2017-03-25T00:52:34.608Z,76.12
2017-03-25T00:53:35.881Z,75.84
2017-03-25T00:54:37.092Z,76.59
2017-03-25T00:55:38.336Z,76.4
2017-03-25T00:56:39.576Z,76.21
2017-03-25T00:57:40.831Z,76.5
2017-03-25T00:58:42.066Z,76.21
2017-03-25T00:59:43.315Z,76.4
2017-03-25T01:00:44.591Z,76.5
2017-03-25T01:01:45.888Z,76.4
2017-03-25T01:02:47.138Z,76.4
2017-03-25T01:03:48.367Z,76.97
2017-03-25T01:04:49.632Z,77.16
2017-03-25T01:05:50.849Z,76.59
2017-03-25T01:06:52.096Z,76.87
2017-03-25T01:07:53.585Z,76.87
2017-03-25T01:08:54.812Z,76.78
2017-03-25T01:09:56.136Z,77.25
2017-03-25T01:10:57.354Z,77.25
2017-03-25T01:11:58.615Z,77.25
2017-03-25T01:12:59.842Z,76.97
2017-03-25T01:14:01.105Z,77.35
2017-03-25T01:15:02.364Z,77.64
2017-03-25T01:16:03.617Z,77.16
2017-03-25T01:17:04.870Z,78.02
2017-03-25T01:18:06.105Z,78.02
2017-03-25T01:19:07.448Z,77.92
2017-03-25T01:20:08.758Z,78.02
2017-03-25T01:21:10.008Z,78.02
2017-03-25T01:22:11.233Z,77.92
2017-03-25T01:23:12.474Z,78.3
2017-03-25T01:24:13.703Z,78.02
2017-03-25T01:25:15.115Z,78.35
2017-03-25T01:26:16.385Z,78.11
2017-03-25T01:27:17.579Z,78.49
2017-03-25T01:28:18.807Z,78.58
2017-03-25T01:29:20.038Z,78.02
2017-03-25T01:30:21.277Z,78.49
2017-03-25T01:31:22.534Z,78.11
2017-03-25T01:32:23.755Z,78.07
2017-03-25T01:33:25.024Z,78.11
2017-03-25T01:34:26.253Z,78.26
2017-03-25T01:35:27.492Z,78.11
2017-03-25T01:36:28.743Z,78.2
2017-03-25T01:37:29.974Z,78.83
2017-03-25T01:38:31.230Z,78.77
2017-03-25T01:39:32.543Z,78.54
2017-03-25T01:40:33.745Z,78.54
2017-03-25T01:41:34.978Z,78.77
2017-03-25T01:42:36.244Z,78.67
2017-03-25T01:43:37.458Z,79.25
2017-03-25T01:44:38.684Z,78.83
2017-03-25T01:45:39.913Z,78.64
2017-03-25T01:46:41.145Z,78.83
2017-03-25T01:47:42.402Z,79.11
2017-03-25T01:48:43.622Z,78.73
2017-03-25T01:49:44.972Z,78.92
2017-03-25T01:50:46.222Z,78.83
2017-03-25T01:51:47.464Z,79.21
2017-03-25T01:52:48.800Z,79.3
2017-03-25T01:53:50.029Z,78.92
2017-03-25T01:54:51.287Z,79.02
2017-03-25T01:55:52.505Z,79.11
2017-03-25T01:56:53.756Z,79.39
2017-03-25T01:57:54.983Z,79.11
2017-03-25T01:58:56.230Z,79.21
2017-03-25T01:59:57.453Z,79.21
2017-03-25T02:00:58.698Z,79.3
2017-03-25T02:01:59.987Z,79.39
2017-03-25T02:03:01.230Z,79.11
2017-03-25T02:04:02.511Z,79.21
2017-03-25T02:05:03.728Z,79.02
2017-03-25T02:06:04.981Z,79.11
2017-03-25T02:07:06.266Z,79.11
2017-03-25T02:08:07.478Z,79.11
2017-03-25T02:09:08.706Z,79.02
2017-03-25T02:10:09.943Z,79.11
2017-03-25T02:11:11.270Z,79.02
2017-03-25T02:12:12.491Z,79.02
2017-03-25T02:13:13.793Z,79.11
2017-03-25T02:14:14.971Z,79.21
2017-03-25T02:15:16.227Z,79.21
2017-03-25T02:16:17.441Z,79.21
2017-03-25T02:17:18.684Z,79.11
2017-03-25T02:18:19.915Z,79.11
2017-03-25T02:19:21.140Z,79.11
2017-03-25T02:20:22.375Z,79.21
2017-03-25T02:21:23.620Z,78.83
2017-03-25T02:22:24.966Z,78.73
2017-03-25T02:23:26.214Z,79.02
2017-03-25T02:24:27.473Z,78.92
2017-03-25T02:25:28.837Z,78.92
2017-03-25T02:26:30.089Z,78.92
2017-03-25T02:27:31.318Z,79.39
2017-03-25T02:28:32.583Z,79.49
2017-03-25T02:29:33.808Z,79.87
2017-03-25T02:30:35.049Z,79.87
2017-03-25T02:31:36.309Z,80.06
2017-03-25T02:32:37.583Z,80.25
2017-03-25T02:33:38.775Z,79.87
2017-03-25T02:34:40.031Z,79.58
2017-03-25T02:35:41.254Z,79.87
2017-03-25T02:36:42.553Z,79.77
2017-03-25T02:37:43.762Z,79.68
2017-03-25T02:38:45.049Z,79.77
2017-03-25T02:39:46.297Z,79.77
2017-03-25T02:40:47.544Z,79.77
2017-03-25T02:41:48.882Z,80.25
2017-03-25T02:42:50.345Z,80.44
2017-03-25T02:43:51.603Z,80.44
2017-03-25T02:44:52.822Z,80.25
2017-03-25T02:45:54.066Z,80.34
2017-03-25T02:46:55.295Z,80.06
2017-03-25T02:47:56.536Z,80.34
2017-03-25T02:48:57.800Z,79.96
2017-03-25T02:49:59.022Z,80.91
2017-03-25T02:51:00.351Z,81.01
2017-03-25T02:52:01.591Z,80.15
2017-03-25T02:53:02.869Z,81.01
2017-03-25T02:54:04.080Z,80.06
2017-03-25T02:55:05.361Z,80.34
2017-03-25T02:56:06.628Z,80.44
2017-03-25T02:57:07.906Z,80.63
2017-03-25T02:58:09.152Z,80.72
2017-03-25T02:59:10.385Z,80.44
2017-03-25T03:00:11.624Z,80.63
2017-03-25T03:01:12.878Z,81.1
2017-03-25T03:02:14.111Z,81.01
2017-03-25T03:03:15.395Z,81.01
2017-03-25T03:04:16.632Z,80.87
2017-03-25T03:05:17.962Z,80.87
2017-03-25T03:06:19.214Z,80.68
2017-03-25T03:07:20.448Z,81.06
2017-03-25T03:08:21.710Z,81.44
2017-03-25T03:09:22.945Z,81.44
2017-03-25T03:10:24.195Z,81.44
2017-03-25T03:11:25.425Z,81.44
2017-03-25T03:12:26.655Z,81.06
2017-03-25T03:13:27.887Z,80.87
2017-03-25T03:14:29.122Z,81.44
2017-03-25T03:15:30.400Z,81.34
2017-03-25T03:16:31.631Z,81.15
2017-03-25T03:17:32.874Z,81.25
2017-03-25T03:18:34.161Z,81.15
2017-03-25T03:19:35.410Z,81.44
2017-03-25T03:20:36.645Z,81.34
2017-03-25T03:21:37.932Z,81.15
2017-03-25T03:22:39.161Z,81.44
2017-03-25T03:23:40.400Z,81.15
2017-03-25T03:24:41.608Z,81.34
2017-03-25T03:25:42.831Z,82.1
2017-03-25T03:26:44.082Z,82.2
2017-03-25T03:27:45.323Z,81.82
2017-03-25T03:28:46.593Z,82.2
2017-03-25T03:29:47.842Z,82.2
2017-03-25T03:30:49.083Z,82.01
2017-03-25T03:31:50.321Z,82.1
2017-03-25T03:32:51.552Z,82.2
2017-03-25T03:33:52.816Z,82.1
2017-03-25T03:34:54.105Z,82.29
2017-03-25T03:35:55.334Z,82.39
2017-03-25T03:36:56.565Z,82.2
2017-03-25T03:37:57.838Z,82.01
2017-03-25T03:38:59.063Z,82.86
2017-03-25T03:40:00.297Z,82.76
2017-03-25T03:41:01.530Z,82.48
2017-03-25T03:42:02.769Z,82.67
2017-03-25T03:43:04.002Z,82.67
2017-03-25T03:44:05.251Z,82.86
2017-03-25T03:45:06.462Z,82.57
2017-03-25T03:46:07.691Z,82.57
2017-03-25T03:47:08.946Z,82.67
2017-03-25T03:48:10.205Z,82.86
2017-03-25T03:49:11.437Z,83.05
2017-03-25T03:50:12.683Z,82.95
2017-03-25T03:51:13.916Z,83.05
2017-03-25T03:52:15.144Z,83.14
2017-03-25T03:53:16.374Z,83.05
2017-03-25T03:54:17.611Z,83.24
2017-03-25T03:55:18.860Z,83.14
2017-03-25T03:56:20.175Z,82.95
2017-03-25T03:57:21.329Z,83.24
2017-03-25T03:58:22.559Z,82.95
2017-03-25T03:59:23.788Z,83.05
2017-03-25T04:00:25.062Z,82.57
2017-03-25T04:01:26.286Z,82.76
2017-03-25T04:02:27.525Z,82.95
2017-03-25T04:03:28.854Z,82.86
2017-03-25T04:04:30.125Z,82.86
2017-03-25T04:05:31.361Z,82.76
2017-03-25T04:06:32.593Z,82.57
2017-03-25T04:07:33.852Z,82.86
2017-03-25T04:08:35.100Z,82.86
2017-03-25T04:09:36.384Z,83.43
2017-03-25T04:10:37.619Z,83.24
2017-03-25T04:11:38.923Z,83.43
2017-03-25T04:12:40.168Z,83.24
2017-03-25T04:13:41.400Z,83.24
2017-03-25T04:14:42.652Z,83.24
2017-03-25T04:15:43.896Z,83.43
2017-03-25T04:16:45.125Z,83.33
2017-03-25T04:17:46.378Z,83.71
2017-03-25T04:18:47.616Z,83.71
2017-03-25T04:19:48.823Z,83.71
2017-03-25T04:20:50.054Z,83.71
2017-03-25T04:21:51.330Z,83.71
2017-03-25T04:22:52.549Z,83.62
2017-03-25T04:23:53.811Z,83.71
2017-03-25T04:24:55.012Z,83.81
2017-03-25T04:25:56.273Z,84.09
2017-03-25T04:26:57.484Z,83.9
2017-03-25T04:27:58.721Z,84.09
2017-03-25T04:28:59.955Z,84.09
2017-03-25T04:30:01.281Z,83.9
2017-03-25T04:31:02.524Z,84
2017-03-25T04:32:03.765Z,84.47
2017-03-25T04:33:04.996Z,84.28
2017-03-25T04:34:06.221Z,84.42
2017-03-25T04:35:07.460Z,84.23
2017-03-25T04:36:08.688Z,84.28
2017-03-25T04:37:09.987Z,84.66
2017-03-25T04:38:11.206Z,84.42
2017-03-25T04:39:12.438Z,84.71
2017-03-25T04:40:13.675Z,85
2017-03-25T04:41:14.935Z,84.81
2017-03-25T04:42:16.160Z,85
2017-03-25T04:43:17.434Z,84.81
2017-03-25T04:44:18.686Z,84.81
2017-03-25T04:45:19.925Z,84.81
2017-03-25T04:46:21.170Z,84.85
2017-03-25T04:47:22.389Z,84.52
2017-03-25T04:48:23.648Z,84.52
2017-03-25T04:49:24.890Z,84.61
2017-03-25T04:50:26.236Z,84.9
2017-03-25T04:51:27.510Z,85
2017-03-25T04:52:28.707Z,85.28
2017-03-25T04:53:29.951Z,85.47
2017-03-25T04:54:31.229Z,85.57
2017-03-25T04:55:32.565Z,85.66
2017-03-25T04:56:33.784Z,85.38
2017-03-25T04:57:35.024Z,85.66
2017-03-25T04:58:36.324Z,85.66
2017-03-25T04:59:37.565Z,85.66
2017-03-25T05:00:38.870Z,85.38
2017-03-25T05:01:40.141Z,85.38
2017-03-25T05:02:41.399Z,85.28
2017-03-25T05:03:42.657Z,85.66
2017-03-25T05:04:43.899Z,85.57
2017-03-25T05:05:45.177Z,85.85
2017-03-25T05:06:46.414Z,85.47
2017-03-25T05:07:47.656Z,85.94
2017-03-25T05:08:48.955Z,86.32
2017-03-25T05:09:50.181Z,86.41
2017-03-25T05:10:51.430Z,86.22
2017-03-25T05:11:52.671Z,86.13
2017-03-25T05:12:53.902Z,86.22
2017-03-25T05:13:55.175Z,86.13
2017-03-25T05:14:56.494Z,86.13
2017-03-25T05:15:57.719Z,86.7
2017-03-25T05:16:58.948Z,86.41
2017-03-25T05:18:00.208Z,86.98
2017-03-25T05:19:01.422Z,86.7
2017-03-25T05:20:02.674Z,86.6
2017-03-25T05:21:03.906Z,86.7
2017-03-25T05:22:05.251Z,86.89
2017-03-25T05:23:06.495Z,86.89
2017-03-25T05:24:07.730Z,86.13
2017-03-25T05:25:08.963Z,86.13
2017-03-25T05:26:10.194Z,86.36
2017-03-25T05:27:11.427Z,86.36
2017-03-25T05:28:12.692Z,86.32
2017-03-25T05:29:14.067Z,85.89
2017-03-25T05:30:15.187Z,86.36
2017-03-25T05:31:16.417Z,85.89
2017-03-25T05:32:17.660Z,85.8
2017-03-25T05:33:18.905Z,85.99
2017-03-25T05:34:20.142Z,85.51
2017-03-25T05:35:21.473Z,85.51
2017-03-25T05:36:22.712Z,85.7
2017-03-25T05:37:23.951Z,85.61
2017-03-25T05:38:25.191Z,84.75
2017-03-25T05:39:26.446Z,85.13
2017-03-25T05:40:27.667Z,84.85
2017-03-25T05:41:29.007Z,84.75
2017-03-25T05:42:30.196Z,84.66
2017-03-25T05:43:31.441Z,84.94
2017-03-25T05:44:32.689Z,85.23
2017-03-25T05:45:33.895Z,84.38
2017-03-25T05:46:35.134Z,84.19
2017-03-25T05:47:36.460Z,84.56
2017-03-25T05:48:37.674Z,84.28
2017-03-25T05:49:39.012Z,84
2017-03-25T05:50:40.254Z,84
2017-03-25T05:51:41.498Z,83.52
2017-03-25T05:52:42.877Z,83.81
2017-03-25T05:53:44.108Z,83.18
2017-03-25T05:54:45.390Z,82.86
2017-03-25T05:55:46.596Z,82.71
2017-03-25T05:56:47.878Z,83.28
2017-03-25T05:57:49.117Z,82.9
2017-03-25T05:58:50.354Z,82.71
2017-03-25T05:59:51.683Z,82.14
2017-03-25T06:00:52.993Z,81.76
2017-03-25T06:01:54.241Z,81.76
2017-03-25T06:02:55.482Z,81.57
2017-03-25T06:03:56.723Z,81.1
2017-03-25T06:04:57.961Z,81.01
2017-03-25T06:05:59.208Z,80.34
2017-03-25T06:07:00.529Z,80.06
2017-03-25T06:08:01.937Z,80.29
2017-03-25T06:09:03.075Z,79.82
2017-03-25T06:10:04.284Z,78.96
2017-03-25T06:11:05.519Z,78.96
2017-03-25T06:12:06.833Z,78.58
2017-03-25T06:13:08.068Z,77.92
2017-03-25T06:14:09.315Z,78.02
2017-03-25T06:15:10.561Z,77.39
2017-03-25T06:16:11.850Z,76.73
2017-03-25T06:17:13.195Z,76.54
2017-03-25T06:18:14.583Z,75.78
2017-03-25T06:19:15.802Z,75.4
2017-03-25T06:20:17.041Z,74.92
2017-03-25T06:21:18.279Z,74.64
2017-03-25T06:22:19.512Z,74.01
2017-03-25T06:23:20.784Z,72.88
2017-03-25T06:24:21.982Z,72.49
2017-03-25T06:25:23.284Z,72.11
2017-03-25T06:26:24.513Z,71.92
2017-03-25T06:27:25.735Z,71.01
2017-03-25T06:28:26.985Z,70.82
2017-03-25T06:29:28.281Z,69.96
2017-03-25T06:30:29.500Z,69.49
2017-03-25T06:31:30.819Z,69.4
2017-03-25T06:32:32.070Z,68.73
2017-03-25T06:33:33.299Z,68.83
2017-03-25T06:34:34.546Z,68.77
2017-03-25T06:35:35.776Z,67.72
2017-03-25T06:36:37.014Z,66.87
2017-03-25T06:37:38.255Z,66.05
2017-03-25T06:38:39.596Z,65.76
2017-03-25T06:39:40.897Z,64.43
2017-03-25T06:40:42.127Z,63.51
2017-03-25T06:41:43.346Z,62.75
2017-03-25T06:42:44.620Z,62.4
2017-03-25T06:43:45.832Z,60.41
2017-03-25T06:44:47.092Z,59.36
2017-03-25T06:45:48.322Z,58.34
2017-03-25T06:46:49.565Z,57.77
2017-03-25T06:47:50.806Z,57.29
2017-03-25T06:48:52.045Z,57.01
2017-03-25T06:49:53.313Z,56.56
2017-03-25T06:50:54.573Z,55.61
2017-03-25T06:51:55.804Z,55.04
2017-03-25T06:52:57.041Z,53.92
2017-03-25T06:53:58.371Z,53.25
2017-03-25T06:54:59.609Z,52.14
2017-03-25T06:56:00.982Z,51.76
2017-03-25T06:57:02.253Z,50.54
2017-03-25T06:58:03.478Z,49.68
2017-03-25T06:59:04.745Z,48.28
2017-03-25T07:00:05.994Z,46.94
2017-03-25T07:01:07.245Z,46.68
2017-03-25T07:02:08.498Z,45.25
2017-03-25T07:03:09.786Z,43.36
2017-03-25T07:04:11.118Z,42.4
2017-03-25T07:05:12.484Z,42.04
2017-03-25T07:06:13.701Z,41.85
2017-03-25T07:07:14.960Z,40.44
2017-03-25T07:08:16.188Z,38.43
2017-03-25T07:09:17.431Z,38.45
2017-03-25T07:10:18.700Z,36.92
2017-03-25T07:11:19.960Z,36.46
2017-03-25T07:12:21.194Z,35.6
2017-03-25T07:13:22.456Z,35.33
2017-03-25T07:14:23.700Z,33.7
2017-03-25T07:15:24.934Z,34.08
2017-03-25T07:16:26.174Z,33.33
2017-03-25T07:17:27.492Z,32.38
2017-03-25T07:18:28.723Z,32.09
2017-03-25T07:19:29.992Z,31.82
2017-03-25T07:20:31.239Z,30.97
2017-03-25T07:21:32.514Z,30.87
2017-03-25T07:22:33.731Z,29.74
2017-03-25T07:23:35.001Z,28.99
2017-03-25T07:24:36.248Z,28.79
2017-03-25T07:25:37.517Z,28.14
2017-03-25T07:26:38.744Z,27.86
2017-03-25T07:27:39.994Z,27.28
2017-03-25T07:28:41.240Z,26.53
2017-03-25T07:29:42.493Z,25.85
2017-03-25T07:30:43.743Z,25.48
2017-03-25T07:31:44.982Z,24.62
2017-03-25T07:32:46.250Z,24.52
2017-03-25T07:33:47.478Z,24.43
2017-03-25T07:34:48.855Z,24.04
2017-03-25T07:35:50.173Z,23.75
2017-03-25T07:36:51.395Z,23.19
2017-03-25T07:37:52.657Z,22.61
2017-03-25T07:38:53.907Z,22.52
2017-03-25T07:39:55.156Z,22.14
2017-03-25T07:40:56.418Z,20.98
2017-03-25T07:41:57.671Z,20.89
2017-03-25T07:42:58.987Z,21.08
2017-03-25T07:44:00.294Z,21.19
2017-03-25T07:45:01.541Z,20.62
2017-03-25T07:46:02.802Z,20.14
2017-03-25T07:47:04.046Z,18.98
2017-03-25T07:48:05.318Z,19.08
2017-03-25T07:49:06.649Z,18.88
2017-03-25T07:50:07.867Z,19.74
2017-03-25T07:51:09.214Z,19.74
2017-03-25T07:52:10.471Z,19.15
2017-03-25T07:53:11.740Z,19.35
2017-03-25T07:54:13.035Z,19.55
2017-03-25T07:55:14.296Z,18.97
2017-03-25T07:56:15.556Z,18.78
2017-03-25T07:57:16.812Z,18.12
2017-03-25T07:58:18.061Z,17.35
2017-03-25T07:59:19.358Z,17.72
2017-03-25T08:00:20.670Z,18.1
2017-03-25T08:01:21.996Z,17.91
2017-03-25T08:02:23.268Z,17.91
2017-03-25T08:03:24.537Z,18.2
2017-03-25T08:04:25.785Z,18.2
2017-03-25T08:05:27.188Z,17.82
2017-03-25T08:06:28.410Z,17.45
2017-03-25T08:07:29.651Z,16.88
2017-03-25T08:08:31.094Z,16.11
2017-03-25T08:09:32.353Z,16.11
2017-03-25T08:10:33.656Z,15.73
2017-03-25T08:11:34.942Z,15.73
2017-03-25T08:12:36.219Z,15.83
2017-03-25T08:13:37.448Z,15.83
2017-03-25T08:14:38.701Z,15.63
2017-03-25T08:15:39.951Z,15.92
2017-03-25T08:16:41.197Z,14.97
2017-03-25T08:17:42.586Z,14.87
2017-03-25T08:18:43.959Z,14.2
2017-03-25T08:19:45.214Z,14.2
2017-03-25T08:20:46.453Z,13.92
2017-03-25T08:21:47.706Z,13.82
2017-03-25T08:22:48.970Z,14.02
2017-03-25T08:23:50.215Z,13.24
2017-03-25T08:24:51.482Z,13.25
2017-03-25T08:25:52.743Z,12.87
2017-03-25T08:26:54.031Z,12.29
2017-03-25T08:27:55.266Z,12.48
2017-03-25T08:28:56.632Z,12.29
2017-03-25T08:29:57.874Z,12.48
2017-03-25T08:30:59.133Z,12.57
2017-03-25T08:32:00.386Z,13.34
2017-03-25T08:33:01.646Z,13.62
2017-03-25T08:34:02.904Z,13.62
2017-03-25T08:35:04.190Z,14.01
2017-03-25T08:36:05.439Z,13.15
2017-03-25T08:37:06.707Z,13.15
2017-03-25T08:38:07.967Z,12.96
2017-03-25T08:39:09.269Z,12.96
2017-03-25T08:40:10.521Z,13.24
2017-03-25T08:41:11.806Z,13.62
2017-03-25T08:42:13.038Z,13.9
2017-03-25T08:43:14.295Z,14.57
2017-03-25T08:44:15.543Z,15.16
2017-03-25T08:45:16.786Z,14.48
2017-03-25T08:46:18.057Z,14.87
2017-03-25T08:47:19.415Z,14.2
2017-03-25T08:48:20.722Z,14.01
2017-03-25T08:49:22.071Z,13.53
2017-03-25T08:50:23.329Z,13.54
2017-03-25T08:51:24.592Z,13.63
2017-03-25T08:52:25.859Z,12.48
2017-03-25T08:53:27.225Z,12.76
2017-03-25T08:54:28.545Z,13.24
2017-03-25T08:55:29.824Z,13.45
2017-03-25T08:56:31.084Z,13.06
2017-03-25T08:57:32.346Z,12.48
2017-03-25T08:58:33.593Z,12.38
2017-03-25T08:59:34.850Z,12.1
2017-03-25T09:00:36.209Z,12.1
2017-03-25T09:01:37.441Z,11.62
2017-03-25T09:02:38.720Z,12.01
2017-03-25T09:03:39.950Z,11.9
2017-03-25T09:04:41.235Z,12.1
2017-03-25T09:05:42.608Z,11.81
2017-03-25T09:06:43.901Z,11.24
2017-03-25T09:07:45.160Z,10.47
2017-03-25T09:08:46.444Z,10.28
2017-03-25T09:09:47.698Z,10.28
2017-03-25T09:10:48.979Z,9.89
2017-03-25T09:11:50.255Z,10.17
2017-03-25T09:12:51.553Z,10.66
2017-03-25T09:13:52.804Z,10.55
2017-03-25T09:14:54.065Z,11.13
2017-03-25T09:15:55.358Z,11.71
2017-03-25T09:16:56.799Z,11.13
2017-03-25T09:17:57.940Z,11.33
2017-03-25T09:18:59.299Z,11.24
2017-03-25T09:20:00.563Z,10.75
2017-03-25T09:21:01.824Z,11.15
2017-03-25T09:22:03.104Z,10.85
2017-03-25T09:23:04.572Z,10.94
2017-03-25T09:24:05.712Z,10.75
2017-03-25T09:25:06.982Z,10.66
2017-03-25T09:26:08.244Z,10.38
2017-03-25T09:27:09.494Z,10.37
2017-03-25T09:28:10.895Z,10.28
2017-03-25T09:29:12.139Z,9.89
2017-03-25T09:30:13.411Z,10.18
2017-03-25T09:31:14.667Z,9.78
2017-03-25T09:32:15.924Z,10.36
2017-03-25T09:33:17.284Z,10.74
2017-03-25T09:34:18.543Z,11.13
2017-03-25T09:35:19.852Z,11.61
2017-03-25T09:36:21.093Z,11.03
2017-03-25T09:37:22.354Z,11.32
2017-03-25T09:38:23.617Z,11.71
2017-03-25T09:39:24.895Z,11.89
2017-03-25T09:40:26.151Z,12.18
2017-03-25T09:41:27.521Z,12.29
2017-03-25T09:42:28.776Z,12.09
2017-03-25T09:43:30.046Z,11.91
2017-03-25T09:44:31.304Z,11.15
2017-03-25T09:45:32.550Z,10.75
2017-03-25T09:46:33.874Z,10.66
2017-03-25T09:47:35.176Z,10.66
2017-03-25T09:48:36.565Z,10.38
2017-03-25T09:49:37.802Z,10.28
2017-03-25T09:50:39.191Z,9.89
2017-03-25T09:51:40.447Z,9.31
2017-03-25T09:52:41.710Z,9.98
2017-03-25T09:53:43.090Z,10.46
2017-03-25T09:54:44.357Z,10.17
2017-03-25T09:55:45.623Z,10.46
2017-03-25T09:56:46.879Z,10.75
2017-03-25T09:57:48.142Z,10.46
2017-03-25T09:58:49.489Z,10.08
2017-03-25T09:59:50.765Z,10.08
2017-03-25T10:00:52.002Z,9.89
2017-03-25T10:01:53.289Z,9.89
2017-03-25T10:02:54.586Z,9.69
2017-03-25T10:03:55.989Z,9.59
2017-03-25T10:04:57.239Z,9.6
2017-03-25T10:05:58.601Z,9.7
2017-03-25T10:06:59.856Z,9.03
2017-03-25T10:08:01.145Z,8.64
2017-03-25T10:09:02.427Z,8.34
2017-03-25T10:10:03.693Z,8.25
2017-03-25T10:11:04.947Z,8.54
2017-03-25T10:12:06.213Z,8.82
2017-03-25T10:13:07.476Z,9.69
2017-03-25T10:14:08.726Z,10.08
2017-03-25T10:15:10.011Z,10.17
2017-03-25T10:16:11.276Z,10.26
2017-03-25T10:17:12.571Z,10.36
2017-03-25T10:18:13.834Z,10.17
2017-03-25T10:19:15.074Z,9.98
2017-03-25T10:20:16.339Z,9.59
2017-03-25T10:21:17.617Z,9.68
2017-03-25T10:22:18.959Z,9.97
2017-03-25T10:23:20.284Z,9.87
2017-03-25T10:24:21.533Z,9.58
2017-03-25T10:25:22.778Z,10.26
2017-03-25T10:26:24.042Z,9.39
2017-03-25T10:27:25.388Z,9.19
2017-03-25T10:28:26.759Z,9.19
2017-03-25T10:29:28.013Z,8.23
2017-03-25T10:30:29.296Z,8.13
2017-03-25T10:31:30.524Z,8.13
2017-03-25T10:32:31.805Z,7.45
2017-03-25T10:33:33.274Z,7.26
2017-03-25T10:34:34.594Z,7.55
2017-03-25T10:35:35.844Z,7.55
2017-03-25T10:36:37.104Z,7.54
2017-03-25T10:37:38.354Z,7.64
2017-03-25T10:38:39.634Z,8.03
2017-03-25T10:39:40.891Z,8.12
2017-03-25T10:40:42.181Z,8.89
2017-03-25T10:41:43.467Z,7.92
2017-03-25T10:42:44.714Z,6.96
2017-03-25T10:43:45.950Z,7.34
2017-03-25T10:44:47.273Z,8.12
2017-03-25T10:45:48.611Z,6.76
2017-03-25T10:46:49.852Z,6.95
2017-03-25T10:47:51.120Z,7.92
2017-03-25T10:48:52.396Z,8.39
2017-03-25T10:49:53.619Z,9.36
2017-03-25T10:50:54.860Z,10.02
2017-03-25T10:51:56.113Z,10.21
2017-03-25T10:52:57.438Z,11.08
2017-03-25T10:53:58.691Z,11.46
2017-03-25T10:54:59.938Z,12.13
2017-03-25T10:56:01.210Z,11.94
2017-03-25T10:57:02.443Z,10.97
2017-03-25T10:58:03.727Z,11.16
2017-03-25T10:59:05.114Z,12.22
2017-03-25T11:00:06.412Z,12.5
2017-03-25T11:01:07.661Z,12.4
2017-03-25T11:02:08.909Z,13.37
2017-03-25T11:03:10.157Z,14.03
2017-03-25T11:04:11.420Z,13.46
2017-03-25T11:05:12.760Z,13.54
2017-03-25T11:06:14.010Z,14.11
2017-03-25T11:07:15.256Z,14.11
2017-03-25T11:08:16.512Z,14.87
2017-03-25T11:09:17.786Z,15.06
2017-03-25T11:10:19.135Z,14.86
2017-03-25T11:11:20.453Z,15.05
2017-03-25T11:12:21.701Z,15.43
2017-03-25T11:13:22.961Z,16
2017-03-25T11:14:24.226Z,16.86
2017-03-25T11:15:25.479Z,17.33
2017-03-25T11:16:26.790Z,17.53
2017-03-25T11:17:28.029Z,17.82
2017-03-25T11:18:29.307Z,18.68
2017-03-25T11:19:30.527Z,17.91
2017-03-25T11:20:31.769Z,18.49
2017-03-25T11:21:33.029Z,18.78
2017-03-25T11:22:34.309Z,18.29
2017-03-25T11:23:35.543Z,18.77
2017-03-25T11:24:36.798Z,19.53
2017-03-25T11:25:38.020Z,19.43
2017-03-25T11:26:39.288Z,20.1
2017-03-25T11:27:40.529Z,20.1
2017-03-25T11:28:41.796Z,19.82
2017-03-25T11:29:43.041Z,20.48
2017-03-25T11:30:44.296Z,20.76
2017-03-25T11:31:45.535Z,21.61
2017-03-25T11:32:46.786Z,21.52
2017-03-25T11:33:48.026Z,22.19
2017-03-25T11:34:49.273Z,22.19
2017-03-25T11:35:50.602Z,22.38
2017-03-25T11:36:51.783Z,22.49
2017-03-25T11:37:53.081Z,22.3
2017-03-25T11:38:54.290Z,21.91
2017-03-25T11:39:55.547Z,20.76
2017-03-25T11:40:56.817Z,20.76
2017-03-25T11:41:58.057Z,20.95
2017-03-25T11:42:59.285Z,19.81
2017-03-25T11:44:00.536Z,17.8
2017-03-25T11:45:01.780Z,17.8
2017-03-25T11:46:03.028Z,17.7
2017-03-25T11:47:04.273Z,17.21
2017-03-25T11:48:05.613Z,16.64
2017-03-25T11:49:06.917Z,17.12
2017-03-25T11:50:08.214Z,17.31
2017-03-25T11:51:09.451Z,17.5
2017-03-25T11:52:10.698Z,17.31
2017-03-25T11:53:11.988Z,16.74
2017-03-25T11:54:13.257Z,16.35
2017-03-25T11:55:14.531Z,16.45
2017-03-25T11:56:15.774Z,16.83
2017-03-25T11:57:17.015Z,16.93
2017-03-25T11:58:18.265Z,16.93
2017-03-25T11:59:19.539Z,16.26
2017-03-25T12:00:20.833Z,16.55
2017-03-25T12:01:22.071Z,16.55
2017-03-25T12:02:23.315Z,17.12
2017-03-25T12:03:24.663Z,17.21
2017-03-25T12:04:25.907Z,16.45
2017-03-25T12:05:27.157Z,16.35
2017-03-25T12:06:28.396Z,16.45
2017-03-25T12:07:29.777Z,16.45
2017-03-25T12:08:31.232Z,16.35
2017-03-25T12:09:32.483Z,16.35
2017-03-25T12:10:33.724Z,15.97
2017-03-25T12:11:35.036Z,16.35
2017-03-25T12:12:36.282Z,16.45
2017-03-25T12:13:37.573Z,15.97
2017-03-25T12:14:38.808Z,15.11
2017-03-25T12:15:40.047Z,15.4
2017-03-25T12:16:41.334Z,15.01
2017-03-25T12:17:42.798Z,15.4
2017-03-25T12:18:44.017Z,15.01
2017-03-25T12:19:45.281Z,14.91
2017-03-25T12:20:46.532Z,15.2
2017-03-25T12:21:47.795Z,15.1
2017-03-25T12:22:49.082Z,14.81
2017-03-25T12:23:50.322Z,15.01
2017-03-25T12:24:51.599Z,15.2
2017-03-25T12:25:52.940Z,15.58
2017-03-25T12:26:54.177Z,15.58
2017-03-25T12:27:55.437Z,15.87
2017-03-25T12:28:56.672Z,15.3
2017-03-25T12:29:57.909Z,14.72
2017-03-25T12:30:59.193Z,14.81
2017-03-25T12:32:00.566Z,14.15
2017-03-25T12:33:01.803Z,13.38
2017-03-25T12:34:03.045Z,13.48
2017-03-25T12:35:04.285Z,13.48
2017-03-25T12:36:05.548Z,13.57
2017-03-25T12:37:06.833Z,13.29
2017-03-25T12:38:08.104Z,13.86
2017-03-25T12:39:09.329Z,13.86
2017-03-25T12:40:10.580Z,12.9
2017-03-25T12:41:11.798Z,13.09
2017-03-25T12:42:13.109Z,12.81
2017-03-25T12:43:14.350Z,12.62
2017-03-25T12:44:15.697Z,12.71
2017-03-25T12:45:16.953Z,12.9
2017-03-25T12:46:18.182Z,12.24
2017-03-25T12:47:19.431Z,12.33
2017-03-25T12:48:20.694Z,12.24
2017-03-25T12:49:21.929Z,11.66
2017-03-25T12:50:23.272Z,12.04
2017-03-25T12:51:24.629Z,12.9
2017-03-25T12:52:25.923Z,12.81
2017-03-25T12:53:27.229Z,13.09
2017-03-25T12:54:28.507Z,13.19
2017-03-25T12:55:29.748Z,12.81
2017-03-25T12:56:31.113Z,13
2017-03-25T12:57:32.394Z,13
2017-03-25T12:58:33.661Z,12.43
2017-03-25T12:59:34.903Z,12.14
2017-03-25T13:00:36.179Z,12.33
2017-03-25T13:01:37.450Z,12.04
2017-03-25T13:02:38.765Z,12.43
2017-03-25T13:03:40.009Z,12.24
2017-03-25T13:04:41.277Z,11.28
2017-03-25T13:05:42.495Z,10.89
2017-03-25T13:06:43.837Z,11.09
2017-03-25T13:07:45.104Z,11.57
2017-03-25T13:08:46.391Z,11.27
2017-03-25T13:09:47.574Z,11.66
2017-03-25T13:10:48.807Z,11.94
2017-03-25T13:11:50.120Z,11.66
2017-03-25T13:12:51.309Z,11.94
2017-03-25T13:13:52.616Z,12.04